LSMA Airport Information

Runway Information
Runway 01 Length 4920 ft width 130 ft
Elevation 1460 ft Threshold 0 ft Heading 11
Runway 19 Length 4920 ft Width 130 ft
Elevation 1425 ft Threshold 0 ft Heading 191
Airport Frequencies
Type ARR Name ARR/DEP Frequency 33.787 MHZ
Type ARR Name ARR/DEP Frequency 139.45 MHZ
Type INFO Name INFO Frequency 138.05 MHZ
Type TWR Name TWR Frequency 119.625 MHZ
Airport Navaids
Airport Weather Information & NOTAM
ADDS - METARS form results

(1205 UTC 23 January 2019)
Data provider http://aviationweather.gov/metar/data/
 
METAR text: LSMA 231150Z AUTO 00000KT 9999NDV FEW100 01/M07 Q0994 RMK
Conditions at: LSMA (ALPNACH , CH) observed 1150 UTC 23 January 2019
Temperature: 1.0°C (34°F)
Dewpoint: -7.0°C (19°F) [RH = 55%]
Pressure (altimeter): 29.35 inches Hg (994.0 mb)
Winds: calm
Visibility: missing
Ceiling: at least 12,000 feet AGL
Clouds: few clouds at 10000 feet AGL
Weather: no significant weather observed at this time

METAR text: LSMA 231120Z AUTO 18003KT 120V230 9999NDV FEW067 SCT085 BKN100 00/M06 Q0994 RMK
Conditions at: LSMA (ALPNACH , CH) observed 1120 UTC 23 January 2019
Temperature: 0.0°C (32°F)
Dewpoint: -6.0°C (21°F) [RH = 64%]
Pressure (altimeter): 29.35 inches Hg (994.0 mb)
Winds: from the S (180 degrees) at 3 MPH (3 knots; 1.5 m/s)
Visibility: missing
Ceiling: 10000 feet AGL
Clouds: few clouds at 6700 feet AGL
scattered clouds at 8500 feet AGL
broken clouds at 10000 feet AGL
Weather: no significant weather observed at this time